Time;durP1;ratioP1;P1;durP2;ratioP2;P2;SDS_P1;SDS_P2;PMS_P1;PMS_P2;Temp;Humidity;BMP_temperature;BMP_pressure;BME280_temperature;BME280_humidity;BME280_pressure;Samples;Min_cycle;Max_cycle;Signal;HPM_P1;HPM_P2
2022/03/03 00:01:25;;;;;;;30.95;7.75;;;;;;;-0.01;100.00;98311.66;5010838;28;20033;-57
2022/03/03 00:03:50;;;;;;;32.42;8.07;;;;;;;-0.42;100.00;98306.25;5010174;28;20022;-56
2022/03/03 00:06:15;;;;;;;34.63;11.55;;;;;;;-0.30;100.00;98314.00;5010838;28;20069;-57
2022/03/03 00:08:41;;;;;;;48.25;13.38;;;;;;;-1.07;100.00;98317.59;5008812;28;20026;-57
2022/03/03 00:11:06;;;;;;;32.15;9.60;;;;;;;-0.37;100.00;98321.66;5012140;28;20052;-55
2022/03/03 00:13:31;;;;;;;34.22;9.48;;;;;;;-0.13;100.00;98310.72;5009367;28;20025;-57
2022/03/03 00:15:57;;;;;;;28.08;7.38;;;;;;;-0.23;100.00;98314.94;5008634;28;20709;-56
2022/03/03 00:18:22;;;;;;;38.05;11.00;;;;;;;-0.43;100.00;98312.22;5008956;28;20028;-57
2022/03/03 00:20:47;;;;;;;28.85;7.40;;;;;;;-0.09;100.00;98307.31;5009237;28;20033;-56
2022/03/03 00:23:13;;;;;;;22.17;6.90;;;;;;;0.11;100.00;98312.56;5009973;28;20503;-57
2022/03/03 00:25:38;;;;;;;33.40;10.43;;;;;;;0.22;100.00;98308.38;5008826;28;20049;-56
2022/03/03 00:28:04;;;;;;;24.15;7.22;;;;;;;0.85;100.00;98315.47;5009946;28;20539;-55
2022/03/03 00:30:30;;;;;;;39.30;13.05;;;;;;;-0.54;100.00;98311.28;5007986;28;20044;-57
2022/03/03 00:32:55;;;;;;;31.25;9.20;;;;;;;-0.14;100.00;98311.56;5008489;28;20030;-55
2022/03/03 00:35:21;;;;;;;29.67;8.70;;;;;;;0.06;100.00;98312.56;5008748;28;20128;-55
2022/03/03 00:37:46;;;;;;;39.55;11.15;;;;;;;-1.41;100.00;98307.00;5009729;28;20029;-55
2022/03/03 00:40:12;;;;;;;29.88;9.10;;;;;;;-0.81;100.00;98311.03;5006669;28;20045;-57
2022/03/03 00:42:38;;;;;;;34.10;10.15;;;;;;;-0.78;100.00;98312.75;5009220;28;20060;-56
2022/03/03 00:45:04;;;;;;;39.75;11.93;;;;;;;-1.51;100.00;98306.00;5008101;28;20113;-56
2022/03/03 00:47:30;;;;;;;33.05;9.63;;;;;;;-1.47;100.00;98310.34;5009672;28;20052;-55
2022/03/03 00:49:55;;;;;;;27.88;8.35;;;;;;;-0.48;100.00;98313.88;5010736;28;20037;-57
2022/03/03 00:52:20;;;;;;;26.95;7.68;;;;;;;-0.59;100.00;98316.34;5008684;28;20137;-55
2022/03/03 00:54:46;;;;;;;37.13;10.52;;;;;;;-0.97;100.00;98322.84;5006899;28;20049;-56
2022/03/03 00:57:11;;;;;;;26.58;8.70;;;;;;;-0.34;100.00;98316.56;5007154;28;20069;-56
2022/03/03 00:59:37;;;;;;;34.00;10.05;;;;;;;-0.83;100.00;98316.97;5009076;28;20057;-57
2022/03/03 01:02:02;;;;;;;34.05;10.57;;;;;;;-1.12;100.00;98322.69;5005645;28;20550;-57
2022/03/03 01:04:27;;;;;;;31.40;10.13;;;;;;;-1.22;100.00;98313.19;5007306;28;20083;-55
2022/03/03 01:06:53;;;;;;;23.02;6.18;;;;;;;-0.50;100.00;98313.00;5007680;28;20692;-58
2022/03/03 01:09:18;;;;;;;33.85;8.38;;;;;;;-0.43;100.00;98317.34;5008551;28;20104;-57
2022/03/03 01:11:44;;;;;;;26.98;7.35;;;;;;;-0.31;100.00;98321.69;5007775;28;20821;-55
2022/03/03 01:14:09;;;;;;;29.63;8.40;;;;;;;-0.65;100.00;98322.28;5008300;28;20043;-57
2022/03/03 01:16:34;;;;;;;25.33;6.30;;;;;;;-0.40;100.00;98319.94;5008072;28;20076;-57
2022/03/03 01:19:00;;;;;;;26.00;7.97;;;;;;;-0.75;100.00;98315.38;5007873;28;20065;-56
2022/03/03 01:21:25;;;;;;;32.42;9.05;;;;;;;-0.62;100.00;98311.22;5009300;28;20042;-57
2022/03/03 01:23:51;;;;;;;34.25;10.38;;;;;;;-1.03;100.00;98315.09;5007651;28;20088;-57
2022/03/03 01:26:17;;;;;;;24.92;6.55;;;;;;;-0.42;100.00;98313.94;5006190;28;20037;-56
2022/03/03 01:28:43;;;;;;;33.55;9.95;;;;;;;-0.57;100.00;98319.78;5008390;28;20048;-56
2022/03/03 01:31:08;;;;;;;33.75;11.10;;;;;;;-1.69;100.00;98310.91;5008724;28;20038;-55
2022/03/03 01:33:34;;;;;;;35.97;11.38;;;;;;;-1.56;100.00;98302.56;5008727;28;20025;-55
2022/03/03 01:35:59;;;;;;;36.60;10.57;;;;;;;-1.46;100.00;98306.09;5008576;28;20106;-58
2022/03/03 01:38:24;;;;;;;40.10;11.73;;;;;;;-1.88;100.00;98314.94;5006712;28;20060;-56
2022/03/03 01:40:50;;;;;;;36.10;11.10;;;;;;;-1.92;100.00;98308.91;5007242;28;20042;-56
2022/03/03 01:43:15;;;;;;;33.42;8.95;;;;;;;-1.12;100.00;98309.00;5007801;28;20034;-56
2022/03/03 01:45:41;;;;;;;33.75;10.52;;;;;;;-1.44;100.00;98300.13;5005141;28;20046;-57
2022/03/03 01:48:06;;;;;;;33.22;10.60;;;;;;;-1.82;100.00;98299.66;5007025;28;20055;-57
2022/03/03 01:50:31;;;;;;;32.15;9.43;;;;;;;-1.62;100.00;98297.34;5008771;28;20061;-57
2022/03/03 01:52:57;;;;;;;29.98;9.20;;;;;;;-1.65;100.00;98297.34;5005968;28;20068;-55
2022/03/03 01:55:24;;;;;;;29.35;8.77;;;;;;;-1.59;100.00;98292.28;5007245;28;20026;-56
2022/03/03 01:57:50;;;;;;;31.92;8.73;;;;;;;-1.10;100.00;98295.41;5006642;28;20498;-56
2022/03/03 02:00:17;;;;;;;21.85;6.78;;;;;;;-0.98;100.00;98292.94;5006766;28;20252;-57
2022/03/03 02:02:42;;;;;;;29.88;7.63;;;;;;;-0.80;100.00;98291.41;5007141;28;20026;-58
2022/03/03 02:05:08;;;;;;;32.22;8.48;;;;;;;-1.15;100.00;98286.81;5005752;28;20037;-56
2022/03/03 02:07:34;;;;;;;29.50;7.80;;;;;;;-1.09;100.00;98286.84;5007002;28;20188;-56
2022/03/03 02:10:04;;;;;;;27.40;9.20;;;;;;;-1.07;100.00;98282.59;5008067;28;20702;-57
2022/03/03 02:12:30;;;;;;;28.65;9.40;;;;;;;-1.49;100.00;98283.00;5005717;28;20056;-55
2022/03/03 02:14:56;;;;;;;46.35;11.52;;;;;;;-1.67;100.00;98278.53;5004730;28;20047;-55
2022/03/03 02:17:22;;;;;;;35.30;10.32;;;;;;;-2.00;100.00;98283.25;5007286;28;20037;-58
2022/03/03 02:19:47;;;;;;;36.50;11.07;;;;;;;-2.43;100.00;98285.16;5005881;28;20017;-56
2022/03/03 02:22:13;;;;;;;32.30;9.95;;;;;;;-1.88;100.00;98279.13;5007824;28;20037;-56
2022/03/03 02:24:39;;;;;;;37.13;11.50;;;;;;;-2.40;100.00;98284.38;5007166;28;20440;-56
2022/03/03 02:27:06;;;;;;;29.45;8.85;;;;;;;-1.89;100.00;98273.16;5005730;28;20048;-56
2022/03/03 02:29:32;;;;;;;24.90;6.50;;;;;;;-1.37;100.00;98273.78;5006498;28;20025;-58
2022/03/03 02:31:59;;;;;;;39.75;11.93;;;;;;;-1.83;100.00;98270.69;5005744;28;20038;-56
2022/03/03 02:34:25;;;;;;;23.95;9.27;;;;;;;-2.03;100.00;98267.88;5005438;28;20407;-56
2022/03/03 02:36:50;;;;;;;27.23;8.65;;;;;;;-2.28;100.00;98268.34;5005569;28;20160;-56
2022/03/03 02:39:15;;;;;;;33.83;9.80;;;;;;;-1.97;100.00;98272.19;5008467;28;20045;-57
2022/03/03 02:41:41;;;;;;;31.65;8.63;;;;;;;-1.88;100.00;98262.09;5005532;28;20135;-57
2022/03/03 02:44:06;;;;;;;27.85;7.05;;;;;;;-1.57;100.00;98270.13;5006637;28;20036;-55
2022/03/03 02:46:31;;;;;;;28.88;6.75;;;;;;;-1.18;100.00;98268.84;5007613;28;20029;-56
2022/03/03 02:48:57;;;;;;;21.85;6.10;;;;;;;-0.79;100.00;98254.69;5005784;28;20127;-55
2022/03/03 02:51:23;;;;;;;25.98;7.50;;;;;;;-1.23;100.00;98250.03;5005843;28;20061;-56
2022/03/03 02:53:49;;;;;;;28.20;7.97;;;;;;;-1.07;100.00;98245.91;5006953;28;20036;-57
2022/03/03 02:56:15;;;;;;;35.15;9.05;;;;;;;-1.42;100.00;98254.94;5005690;28;20037;-57
2022/03/03 02:58:41;;;;;;;32.42;8.40;;;;;;;-1.88;100.00;98248.44;5005167;28;20108;-57
2022/03/03 03:01:08;;;;;;;32.35;9.63;;;;;;;-1.60;100.00;98253.06;5004202;28;20099;-56
2022/03/03 03:03:33;;;;;;;34.70;11.13;;;;;;;-2.99;100.00;98263.00;5008795;28;20057;-56
2022/03/03 03:05:58;;;;;;;31.70;10.65;;;;;;;-3.20;100.00;98267.72;5007793;28;20515;-56
2022/03/03 03:08:24;;;;;;;27.10;7.10;;;;;;;-1.85;100.00;98251.91;5005009;28;20025;-55
2022/03/03 03:10:49;;;;;;;26.02;7.15;;;;;;;-1.59;100.00;98261.59;5003612;28;20049;-57
2022/03/03 03:13:15;;;;;;;40.22;11.75;;;;;;;-2.30;100.00;98257.25;5005551;28;20128;-57
2022/03/03 03:15:43;;;;;;;32.78;10.07;;;;;;;-2.42;100.00;98256.25;5005553;28;20053;-58
2022/03/03 03:18:16;;;;;;;38.25;10.20;;;;;;;-2.06;100.00;98255.06;5005944;28;20041;-56
2022/03/03 03:20:43;;;;;;;31.52;11.05;;;;;;;-2.86;100.00;98258.97;5004756;28;20029;-56
2022/03/03 03:23:11;;;;;;;34.47;8.73;;;;;;;-2.19;100.00;98256.59;5006803;28;20113;-56
2022/03/03 03:25:45;;;;;;;29.58;8.73;;;;;;;-1.83;100.00;98252.78;5006233;28;20115;-56
2022/03/03 03:28:13;;;;;;;39.38;10.88;;;;;;;-1.98;100.00;98262.81;5005579;28;20041;-55
2022/03/03 03:30:39;;;;;;;37.17;11.95;;;;;;;-3.17;100.00;98262.69;5003565;28;20699;-57
2022/03/03 03:33:05;;;;;;;31.98;9.18;;;;;;;-3.11;100.00;98262.78;5006956;28;20113;-56
2022/03/03 03:35:30;;;;;;;34.25;8.40;;;;;;;-2.15;100.00;98253.22;5007069;28;20121;-56
2022/03/03 03:37:56;;;;;;;28.02;7.38;;;;;;;-1.56;100.00;98248.84;5011883;28;20056;-58
2022/03/03 03:40:21;;;;;;;27.17;7.63;;;;;;;-1.48;100.00;98239.53;5010259;28;20030;-58
2022/03/03 03:42:47;;;;;;;28.27;6.88;;;;;;;-1.20;100.00;98229.59;5009772;28;20080;-57
2022/03/03 03:45:13;;;;;;;32.83;9.80;;;;;;;-1.74;100.00;98231.59;5007763;28;20590;-56
2022/03/03 03:47:40;;;;;;;30.08;7.85;;;;;;;-1.76;100.00;98228.16;5007454;28;20400;-55
2022/03/03 03:50:08;;;;;;;30.38;8.25;;;;;;;-1.80;100.00;98226.38;5007514;28;20073;-54
2022/03/03 03:52:35;;;;;;;29.33;6.97;;;;;;;-1.19;100.00;98224.47;5010519;28;20042;-57
2022/03/03 03:55:01;;;;;;;42.17;11.15;;;;;;;-1.59;100.00;98225.78;5007149;28;20033;-56
2022/03/03 03:57:26;;;;;;;33.38;10.25;;;;;;;-1.96;100.00;98225.34;5008307;28;20038;-54
2022/03/03 03:59:51;;;;;;;32.97;8.50;;;;;;;-1.66;100.00;98224.00;5009072;28;20564;-55
2022/03/03 04:02:17;;;;;;;36.42;10.63;;;;;;;-2.37;100.00;98223.09;5009941;28;20404;-55
2022/03/03 04:04:42;;;;;;;41.78;12.35;;;;;;;-2.70;100.00;98216.69;5007496;28;20051;-55
2022/03/03 04:07:08;;;;;;;37.20;10.57;;;;;;;-2.66;100.00;98215.88;5008223;28;20684;-56
2022/03/03 04:09:34;;;;;;;31.20;8.18;;;;;;;-2.16;100.00;98202.94;5007984;28;20849;-56
2022/03/03 04:11:59;;;;;;;32.10;9.75;;;;;;;-1.56;100.00;98195.13;5012075;28;20128;-57
2022/03/03 04:14:24;;;;;;;27.75;7.80;;;;;;;-1.62;100.00;98202.72;5010880;28;20022;-58
2022/03/03 04:16:50;;;;;;;28.58;6.82;;;;;;;-1.05;100.00;98199.03;5006844;28;20038;-56
2022/03/03 04:19:15;;;;;;;27.33;9.07;;;;;;;-2.35;100.00;98195.91;5009488;28;20288;-57
2022/03/03 04:21:41;;;;;;;27.65;6.95;;;;;;;-1.38;100.00;98197.88;5007937;28;20668;-57
2022/03/03 04:24:06;;;;;;;32.60;8.13;;;;;;;-1.82;100.00;98192.25;5007971;28;20033;-55
2022/03/03 04:26:33;;;;;;;23.13;6.32;;;;;;;-1.16;100.00;98185.25;5010620;28;20033;-60
2022/03/03 04:28:58;;;;;;;37.53;9.02;;;;;;;-1.50;100.00;98169.59;5009514;28;20036;-57
2022/03/03 04:31:24;;;;;;;30.33;7.72;;;;;;;-1.29;100.00;98165.50;5009166;28;20042;-55
2022/03/03 04:33:49;;;;;;;33.15;10.30;;;;;;;-1.63;100.00;98160.09;5008692;28;20040;-56
2022/03/03 04:36:14;;;;;;;37.85;10.98;;;;;;;-2.61;100.00;98155.53;5010545;28;20038;-56
2022/03/03 04:38:40;;;;;;;24.20;6.35;;;;;;;-1.08;100.00;98155.47;5009004;28;20716;-54
2022/03/03 04:41:05;;;;;;;33.78;8.35;;;;;;;-1.64;100.00;98148.13;5009437;28;20068;-55
2022/03/03 04:43:30;;;;;;;35.65;11.77;;;;;;;-2.39;100.00;98140.47;5008835;28;20038;-57
2022/03/03 04:45:56;;;;;;;36.20;11.52;;;;;;;-3.61;100.00;98151.38;5008694;28;20961;-55
2022/03/03 04:48:29;;;;;;;42.58;11.27;;;;;;;-3.59;100.00;98143.78;5008952;28;20435;-57
2022/03/03 04:50:54;;;;;;;34.22;10.70;;;;;;;-3.81;100.00;98135.75;5005644;28;20095;-56
2022/03/03 04:53:20;;;;;;;33.90;9.57;;;;;;;-3.28;100.00;98126.44;5010480;28;20029;-56
2022/03/03 04:55:45;;;;;;;25.95;7.03;;;;;;;-2.08;100.00;98120.41;5008467;28;20080;-56
2022/03/03 04:58:10;;;;;;;36.00;9.27;;;;;;;-2.39;100.00;98122.59;5009003;28;20179;-57
2022/03/03 05:00:36;;;;;;;26.33;6.68;;;;;;;-1.83;100.00;98119.81;5007611;28;20040;-56
2022/03/03 05:03:01;;;;;;;24.90;9.27;;;;;;;-2.43;100.00;98116.56;5008737;28;20029;-58
2022/03/03 05:05:26;;;;;;;34.97;11.55;;;;;;;-3.05;100.00;98130.22;5006337;28;20042;-56
2022/03/03 05:07:51;;;;;;;47.53;11.75;;;;;;;-4.37;100.00;98153.34;5008552;28;20492;-58
2022/03/03 05:10:17;;;;;;;37.45;11.43;;;;;;;-4.21;100.00;98162.16;5007393;28;20037;-57
2022/03/03 05:12:42;;;;;;;34.05;10.73;;;;;;;-4.35;100.00;98167.81;5010694;28;20466;-58
2022/03/03 05:15:08;;;;;;;38.83;10.18;;;;;;;-4.05;100.00;98176.91;5007465;28;20666;-57
2022/03/03 05:17:34;;;;;;;33.13;10.40;;;;;;;-3.68;100.00;98172.50;5008166;28;20209;-57
2022/03/03 05:19:59;;;;;;;29.83;8.50;;;;;;;-3.54;100.00;98163.41;5008035;28;20018;-58
2022/03/03 05:22:24;;;;;;;40.65;9.35;;;;;;;-2.93;100.00;98161.00;5008477;28;20037;-56
2022/03/03 05:24:52;;;;;;;40.05;8.90;;;;;;;-2.35;100.00;98152.47;5004659;28;20515;-57
2022/03/03 05:27:18;;;;;;;31.42;8.82;;;;;;;-2.39;100.00;98153.25;5006926;28;20104;-57
2022/03/03 05:29:43;;;;;;;27.08;6.43;;;;;;;-2.07;100.00;98165.56;5010374;28;20613;-57
2022/03/03 05:32:08;;;;;;;37.42;9.50;;;;;;;-2.35;100.00;98168.63;5007247;28;20137;-58
2022/03/03 05:34:34;;;;;;;37.85;9.05;;;;;;;-2.64;100.00;98160.59;5007445;28;20028;-57
2022/03/03 05:36:59;;;;;;;25.63;7.32;;;;;;;-1.72;100.00;98149.78;5005733;28;20049;-56
2022/03/03 05:39:27;;;;;;;26.90;6.57;;;;;;;-1.37;100.00;98144.97;5007772;28;20033;-59
2022/03/03 05:41:55;;;;;;;30.88;8.48;;;;;;;-1.86;100.00;98139.38;5009158;28;20069;-55
2022/03/03 05:44:21;;;;;;;26.05;7.55;;;;;;;-1.37;100.00;98135.59;5008910;28;20032;-56
2022/03/03 05:46:47;;;;;;;41.65;11.45;;;;;;;-2.94;100.00;98131.22;5005253;28;20676;-56
2022/03/03 05:49:12;;;;;;;33.53;9.27;;;;;;;-2.08;100.00;98134.03;5007967;28;20025;-57
2022/03/03 05:51:38;;;;;;;33.90;10.00;;;;;;;-2.31;100.00;98136.31;5007141;28;20048;-57
2022/03/03 05:54:03;;;;;;;31.08;8.18;;;;;;;-1.98;100.00;98124.78;5008362;28;20022;-56
2022/03/03 05:56:32;;;;;;;35.28;9.45;;;;;;;-2.66;100.00;98128.22;5005095;28;20112;-57
2022/03/03 05:59:06;;;;;;;39.83;11.85;;;;;;;-2.48;100.00;98137.78;5008111;28;20056;-57
2022/03/03 06:01:34;;;;;;;40.03;11.70;;;;;;;-3.75;100.00;98135.88;5004971;28;20523;-56
2022/03/03 06:04:00;;;;;;;24.13;7.22;;;;;;;-2.47;100.00;98139.53;5007056;28;20519;-57
2022/03/03 06:06:28;;;;;;;40.55;10.77;;;;;;;-2.64;100.00;98141.84;5004868;28;20071;-56
2022/03/03 06:09:14;;;;;;;44.35;12.52;;;;;;;-4.27;100.00;98155.25;5006616;28;20037;-57
2022/03/03 06:11:47;;;;;;;44.05;12.00;;;;;;;-3.88;100.00;98160.28;5007102;28;20064;-59
2022/03/03 06:14:20;;;;;;;33.85;10.77;;;;;;;-3.70;100.00;98163.97;5008723;28;20013;-58
2022/03/03 06:16:48;;;;;;;37.80;11.27;;;;;;;-3.28;100.00;98151.94;5005529;28;20127;-57
2022/03/03 06:19:14;;;;;;;37.30;11.27;;;;;;;-3.64;100.00;98158.13;5007830;28;20041;-57
2022/03/03 06:21:39;;;;;;;38.10;10.95;;;;;;;-3.53;100.00;98162.59;5006842;28;20121;-57
2022/03/03 06:24:05;;;;;;;32.38;9.38;;;;;;;-3.05;100.00;98155.72;5006123;28;20462;-56
2022/03/03 06:26:30;;;;;;;34.90;8.73;;;;;;;-1.50;100.00;98150.84;5003594;28;20521;-57
2022/03/03 06:28:57;;;;;;;36.95;11.38;;;;;;;-1.65;100.00;98156.66;5005554;28;20025;-57
2022/03/03 06:31:25;;;;;;;38.25;12.15;;;;;;;-1.51;100.00;98152.50;5008517;28;20764;-56
2022/03/03 06:33:50;;;;;;;39.13;11.68;;;;;;;-0.86;100.00;98155.63;5007153;28;20033;-56
2022/03/03 06:36:16;;;;;;;36.30;11.73;;;;;;;-0.03;100.00;98158.63;5007305;28;20065;-56
2022/03/03 06:38:41;;;;;;;36.72;11.93;;;;;;;0.19;100.00;98155.28;5005588;28;20117;-58
2022/03/03 06:41:07;;;;;;;46.80;14.32;;;;;;;1.35;100.00;98158.78;5005207;28;20128;-56
2022/03/03 06:43:34;;;;;;;33.53;12.57;;;;;;;1.68;100.00;98151.84;5007375;28;20022;-57
2022/03/03 06:45:59;;;;;;;39.20;12.15;;;;;;;3.39;100.00;98147.31;5005157;28;20088;-55
2022/03/03 06:48:25;;;;;;;38.22;12.55;;;;;;;3.50;100.00;98139.50;5007060;28;20534;-57
2022/03/03 06:50:53;;;;;;;34.83;12.65;;;;;;;3.48;100.00;98139.50;5006510;28;20034;-57
2022/03/03 06:53:28;;;;;;;36.95;12.32;;;;;;;4.99;93.21;98140.06;5006598;28;20125;-56
2022/03/03 06:56:01;;;;;;;33.17;12.45;;;;;;;4.97;74.79;98139.25;5004597;28;21154;-57
2022/03/03 06:58:29;;;;;;;37.70;12.55;;;;;;;5.45;73.31;98139.28;5004628;28;20025;-57
2022/03/03 07:00:56;;;;;;;33.47;12.65;;;;;;;6.19;69.88;98143.03;5004621;28;20567;-57
2022/03/03 07:03:22;;;;;;;33.25;12.90;;;;;;;6.67;61.93;98142.88;5006960;28;20033;-56
2022/03/03 07:05:49;;;;;;;31.88;12.45;;;;;;;6.69;60.72;98130.72;5006435;28;20045;-58
2022/03/03 07:08:15;;;;;;;33.13;12.95;;;;;;;5.94;61.11;98127.97;5005310;28;20033;-59
2022/03/03 07:10:41;;;;;;;31.13;13.40;;;;;;;6.40;59.92;98133.13;5007282;28;20042;-56
2022/03/03 07:13:07;;;;;;;33.17;13.30;;;;;;;6.97;56.81;98137.00;5007005;28;20125;-56
2022/03/03 07:15:35;;;;;;;35.70;13.82;;;;;;;8.39;53.97;98131.41;5003961;28;20033;-57
2022/03/03 07:18:07;;;;;;;29.60;13.00;;;;;;;7.42;56.00;98144.50;5007019;28;20030;-57
2022/03/03 07:20:39;;;;;;;;;;;;;;;4.75;57.99;98144.75;5005610;28;20066;-58
2022/03/03 07:23:12;;;;;;;31.77;11.98;;;;;;;4.87;59.20;98142.84;5005409;28;19971;-58
2022/03/03 07:25:47;;;;;;;28.02;12.63;;;;;;;4.80;61.20;98145.53;5001497;28;20042;-56
2022/03/03 07:28:14;;;;;;;31.55;12.88;;;;;;;5.62;63.85;98145.88;5006311;28;20195;-57
2022/03/03 07:30:43;;;;;;;36.80;13.45;;;;;;;3.79;62.85;98157.22;5003974;28;20029;-57
2022/03/03 07:33:27;;;;;;;31.50;13.30;;;;;;;4.12;69.59;98150.81;5008491;28;20032;-57
2022/03/03 07:35:57;;;;;;;31.20;13.40;;;;;;;4.93;71.01;98145.34;5008306;28;20117;-56
2022/03/03 07:38:27;;;;;;;35.25;12.75;;;;;;;5.82;63.14;98143.75;5001952;28;20083;-56
2022/03/03 07:40:53;;;;;;;32.88;12.95;;;;;;;8.36;57.20;98144.47;5008067;28;20057;-55
2022/03/03 07:43:19;;;;;;;27.90;11.80;;;;;;;8.51;53.93;98144.06;5006528;28;20033;-58
2022/03/03 07:45:45;;;;;;;28.80;12.02;;;;;;;10.22;53.45;98141.78;5004793;28;20674;-60
2022/03/03 07:48:12;;;;;;;29.65;11.88;;;;;;;11.06;48.69;98143.78;5004188;28;20538;-54
2022/03/03 07:50:41;;;;;;;29.73;12.68;;;;;;;11.57;46.13;98145.16;5003222;28;20038;-57
2022/03/03 07:53:11;;;;;;;26.20;11.70;;;;;;;12.83;43.32;98144.72;5005790;28;20040;-55
2022/03/03 07:55:44;;;;;;;28.80;12.32;;;;;;;12.52;42.65;98146.16;5003809;28;20041;-56
2022/03/03 07:58:16;;;;;;;25.30;12.07;;;;;;;13.65;43.04;98144.19;5006498;28;20108;-56
2022/03/03 08:00:47;;;;;;;29.75;12.70;;;;;;;13.56;41.46;98141.19;5004072;28;20243;-57
2022/03/03 08:03:15;;;;;;;21.75;11.98;;;;;;;14.81;41.07;98136.28;5004520;28;20656;-55
2022/03/03 08:05:44;;;;;;;32.08;13.25;;;;;;;14.49;39.28;98137.19;5002629;28;20627;-57
2022/03/03 08:08:13;;;;;;;25.52;12.43;;;;;;;15.10;38.61;98136.41;5004062;28;20504;-58
2022/03/03 08:10:41;;;;;;;26.10;12.52;;;;;;;13.61;38.45;98140.03;5004089;28;20045;-58
2022/03/03 08:13:11;;;;;;;24.23;11.93;;;;;;;15.78;36.30;98138.59;5006009;28;20048;-56
2022/03/03 08:15:38;;;;;;;25.40;12.40;;;;;;;15.00;38.06;98135.25;5004606;28;20126;-56
2022/03/03 08:18:04;;;;;;;26.42;12.50;;;;;;;16.41;35.22;98136.50;5005923;28;20399;-56
2022/03/03 08:20:33;;;;;;;24.17;12.63;;;;;;;15.87;35.32;98131.94;5014875;28;20057;-57
2022/03/03 08:23:00;;;;;;;28.10;12.38;;;;;;;15.85;36.01;98138.22;5010297;28;20064;-56
2022/03/03 08:25:26;;;;;;;22.70;11.93;;;;;;;15.86;35.96;98145.16;5008250;28;20072;-57
2022/03/03 08:27:53;;;;;;;24.02;12.18;;;;;;;15.86;35.54;98138.16;5008392;28;20033;-56
2022/03/03 08:30:18;;;;;;;20.70;12.43;;;;;;;15.06;35.82;98134.06;5007475;28;20061;-56
2022/03/03 08:32:50;;;;;;;22.95;12.60;;;;;;;13.75;37.14;98122.72;5009202;28;20068;-59
2022/03/03 08:35:18;;;;;;;23.00;13.05;;;;;;;15.64;34.65;98124.53;5007750;28;20034;-58
2022/03/03 08:37:50;;;;;;;22.70;12.88;;;;;;;14.94;35.75;98131.19;5010215;28;20121;-57
2022/03/03 08:40:18;;;;;;;22.85;12.88;;;;;;;17.09;33.06;98117.28;5008309;28;20025;-57
2022/03/03 08:42:56;;;;;;;21.17;12.25;;;;;;;17.74;32.10;98118.22;5009295;28;20719;-56
2022/03/03 08:45:29;;;;;;;21.00;12.88;;;;;;;17.44;32.04;98110.59;5008254;28;20025;-56
2022/03/03 08:47:59;;;;;;;21.55;11.15;;;;;;;19.14;33.75;98116.25;5008091;28;20038;-58
2022/03/03 08:50:27;;;;;;;23.48;13.65;;;;;;;13.64;36.41;98121.53;5009354;28;20420;-58
2022/03/03 08:52:57;;;;;;;23.05;12.63;;;;;;;17.33;36.22;98113.94;5008858;28;20576;-57
2022/03/03 08:55:23;;;;;;;22.73;12.40;;;;;;;16.84;34.47;98112.75;5006913;28;20026;-56
2022/03/03 08:57:49;;;;;;;25.85;13.38;;;;;;;16.66;32.35;98108.66;5009587;28;20131;-57
2022/03/03 09:00:14;;;;;;;23.02;12.85;;;;;;;15.83;32.98;98104.13;5007814;28;20447;-58
2022/03/03 09:02:40;;;;;;;22.63;13.57;;;;;;;15.22;32.33;98101.56;5007406;28;20034;-57
2022/03/03 09:05:06;;;;;;;23.17;13.55;;;;;;;12.68;35.72;98098.31;5008652;28;20022;-58
2022/03/03 09:07:32;;;;;;;24.90;13.55;;;;;;;14.10;35.35;98085.94;5009068;28;20706;-57
2022/03/03 09:09:57;;;;;;;23.50;14.05;;;;;;;15.08;33.32;98087.53;5006676;28;20044;-58
2022/03/03 09:12:23;;;;;;;23.13;13.18;;;;;;;14.29;34.96;98086.63;5009168;28;20083;-57
2022/03/03 09:14:49;;;;;;;25.38;13.85;;;;;;;17.51;32.51;98080.22;5006119;28;20048;-58
2022/03/03 09:17:14;;;;;;;24.23;12.75;;;;;;;17.95;30.55;98078.16;5008433;28;20041;-58
2022/03/03 09:19:39;;;;;;;26.80;13.52;;;;;;;18.19;31.93;98075.56;5008037;28;20132;-58
2022/03/03 09:22:05;;;;;;;22.33;12.93;;;;;;;16.81;32.17;98077.84;5007314;28;20038;-58
2022/03/03 09:24:31;;;;;;;26.25;13.93;;;;;;;19.33;28.82;98070.75;5007822;28;20045;-58
2022/03/03 09:26:56;;;;;;;24.55;13.85;;;;;;;19.24;29.04;98064.38;5005913;28;20392;-56
2022/03/03 09:29:22;;;;;;;24.80;13.82;;;;;;;14.17;32.79;98061.06;5006628;28;20115;-57
2022/03/03 09:31:48;;;;;;;22.45;13.23;;;;;;;18.69;30.20;98065.78;5006185;28;20376;-58
2022/03/03 09:34:14;;;;;;;24.80;14.02;;;;;;;17.98;29.07;98065.59;5009058;28;20022;-57
2022/03/03 09:36:39;;;;;;;24.05;13.88;;;;;;;19.86;27.81;98070.28;5005465;28;20038;-58
2022/03/03 09:39:05;;;;;;;24.58;13.93;;;;;;;19.00;28.07;98056.47;5008555;28;20045;-58
2022/03/03 09:41:30;;;;;;;22.73;13.75;;;;;;;16.33;30.25;98042.25;5010689;28;20417;-59
2022/03/03 09:43:57;;;;;;;26.95;14.82;;;;;;;15.00;31.69;98045.94;5006788;28;20104;-57
2022/03/03 09:46:23;;;;;;;29.05;14.50;;;;;;;18.82;28.30;98040.19;5006283;28;20076;-57
2022/03/03 09:48:48;;;;;;;24.10;14.70;;;;;;;17.23;29.15;98039.06;5007883;28;20104;-58
2022/03/03 09:51:14;;;;;;;25.45;14.05;;;;;;;19.98;27.20;98036.72;5005537;28;20075;-57
2022/03/03 09:53:40;;;;;;;21.50;12.18;;;;;;;16.23;32.86;98030.63;5008936;28;20056;-56
2022/03/03 09:56:06;;;;;;;24.75;13.98;;;;;;;15.70;31.79;98027.75;5003786;28;20033;-57
2022/03/03 09:58:31;;;;;;;26.17;13.93;;;;;;;15.48;32.31;98028.19;5007379;28;20055;-58
2022/03/03 10:00:57;;;;;;;27.30;13.90;;;;;;;19.13;28.20;98026.47;5006716;28;20360;-58
2022/03/03 10:03:22;;;;;;;22.67;13.10;;;;;;;17.37;29.67;98023.16;5007390;28;20100;-57
2022/03/03 10:05:51;;;;;;;28.45;13.90;;;;;;;18.72;28.01;98033.03;5005721;28;20061;-57
2022/03/03 10:08:27;;;;;;;23.70;12.77;;;;;;;18.61;27.55;98024.09;5008776;28;20021;-58
2022/03/03 10:10:56;;;;;;;23.85;13.32;;;;;;;18.58;29.21;98024.34;5005562;28;20069;-55
2022/03/03 10:13:22;;;;;;;20.95;13.20;;;;;;;19.46;29.04;98017.75;5006928;28;20121;-57
2022/03/03 10:15:53;;;;;;;22.13;13.27;;;;;;;19.04;30.50;98020.94;5007440;28;20144;-56
2022/03/03 10:18:20;;;;;;;23.67;13.10;;;;;;;18.75;27.52;98016.94;5007030;28;20662;-56
2022/03/03 10:20:48;;;;;;;20.50;12.57;;;;;;;17.61;28.94;98017.13;5005587;28;20052;-56
2022/03/03 10:23:13;;;;;;;23.83;12.93;;;;;;;17.45;32.17;98018.19;5007871;28;20022;-57
2022/03/03 10:25:42;;;;;;;25.65;13.15;;;;;;;13.72;32.72;98007.56;5004415;28;20077;-57
2022/03/03 10:28:31;;;;;;;22.83;12.57;;;;;;;16.32;33.40;98011.63;5006533;28;20587;-58
2022/03/03 10:30:59;;;;;;;21.00;12.82;;;;;;;17.69;29.05;98014.81;5006373;28;20892;-56
2022/03/03 10:33:30;;;;;;;23.02;12.85;;;;;;;17.56;29.77;98014.81;5006975;28;20557;-57
2022/03/03 10:36:03;;;;;;;21.58;12.23;;;;;;;16.59;34.49;98016.00;5006456;28;20945;-57
2022/03/03 10:38:30;;;;;;;22.45;12.90;;;;;;;16.25;29.26;98014.72;5007836;28;20033;-58
2022/03/03 10:40:56;;;;;;;20.55;11.73;;;;;;;15.40;36.66;98015.53;5004321;28;20037;-56
2022/03/03 10:43:21;;;;;;;25.13;13.73;;;;;;;15.32;29.51;98014.28;5004583;28;20030;-57
2022/03/03 10:46:01;;;;;;;24.10;12.40;;;;;;;14.67;29.04;98017.22;5002836;28;20065;-56
2022/03/03 10:48:28;;;;;;;21.02;11.40;;;;;;;17.71;31.56;98019.03;5007595;28;20022;-58
2022/03/03 10:50:55;;;;;;;22.33;11.65;;;;;;;15.69;31.69;98017.31;5004913;28;20041;-59
2022/03/03 10:53:22;;;;;;;24.55;13.15;;;;;;;15.93;29.46;98022.88;5007024;28;20030;-58
2022/03/03 10:56:04;;;;;;;22.60;12.05;;;;;;;15.98;28.90;98024.25;5005367;28;20041;-58
2022/03/03 10:58:58;;;;;;;18.95;10.25;;;;;;;17.07;29.84;98019.00;5007747;28;20596;-56
2022/03/03 11:01:24;;;;;;;21.08;11.13;;;;;;;17.07;28.33;98019.00;5005765;28;20042;-57
2022/03/03 11:03:51;;;;;;;18.02;10.48;;;;;;;16.44;28.67;98015.22;5006726;28;20204;-59
2022/03/03 11:06:21;;;;;;;19.27;10.82;;;;;;;15.21;29.68;98013.13;5007232;28;20772;-57
2022/03/03 11:08:48;;;;;;;22.33;11.05;;;;;;;15.27;29.91;98001.41;5004230;28;20058;-59
2022/03/03 11:11:13;;;;;;;20.20;10.52;;;;;;;16.12;30.75;98006.75;5007929;28;20074;-58
2022/03/03 11:13:39;;;;;;;22.63;10.57;;;;;;;14.52;30.43;98008.41;5009757;28;20029;-58
2022/03/03 11:16:06;;;;;;;24.48;11.60;;;;;;;14.98;28.13;98005.78;5003411;28;20125;-58